Time;durP1;ratioP1;P1;durP2;ratioP2;P2;SDS_P1;SDS_P2;PMS_P1;PMS_P2;Temp;Humidity;BMP_temperature;BMP_pressure;BME280_temperature;BME280_humidity;BME280_pressure;Samples;Min_cycle;Max_cycle;Signal;HPM_P1;HPM_P2
2022/03/12 00:01:12;;;;;;;46.13;18.55;;;;;;;-2.71;40.37;101850.37;2145467;83;28784;-68
2022/03/12 00:04:14;;;;;;;44.25;17.50;;;;;;;-2.71;40.33;101851.68;2145644;83;30976;-68
2022/03/12 00:07:16;;;;;;;41.20;17.90;;;;;;;-2.72;40.40;101855.14;2146008;83;32973;-67
2022/03/12 00:10:21;;;;;;;46.77;17.02;;;;;;;-2.74;40.55;101845.93;2144907;82;29303;-68
2022/03/12 00:13:22;;;;;;;;;;;;;;;-2.74;40.56;101845.93;2134671;83;28220;-67
2022/03/12 00:16:25;;;;;;;44.50;17.80;;;;;;;-2.78;40.63;101841.42;2073022;85;28586;-67
2022/03/12 00:19:27;;;;;;;44.35;19.40;;;;;;;-2.82;40.67;101836.52;2109230;84;31026;-68
2022/03/12 00:22:29;;;;;;;36.58;16.15;;;;;;;-2.84;40.75;101832.09;2109602;84;33744;-67
2022/03/12 00:25:31;;;;;;;50.12;20.40;;;;;;;-2.86;40.78;101827.21;2109571;84;29365;-68
2022/03/12 00:28:33;;;;;;;40.05;16.50;;;;;;;-2.88;40.98;101823.21;2109195;83;28216;-67
2022/03/12 00:31:35;;;;;;;52.93;19.23;;;;;;;-2.89;41.13;101830.61;2109683;84;28616;-68
2022/03/12 00:34:36;;;;;;;45.45;18.85;;;;;;;-2.90;41.05;101832.79;2138320;83;31216;-68
2022/03/12 00:37:38;;;;;;;46.85;19.23;;;;;;;-2.91;41.09;101837.13;2145917;83;32928;-67
2022/03/12 00:40:40;;;;;;;41.10;18.00;;;;;;;-2.92;41.06;101837.97;2139534;83;29367;-67
2022/03/12 00:43:42;;;;;;;45.15;19.23;;;;;;;-2.94;41.06;101833.53;2082239;85;27683;-68
2022/03/12 00:46:45;;;;;;;42.48;18.67;;;;;;;-2.95;41.05;101830.00;2082081;85;28671;-68
2022/03/12 00:49:49;;;;;;;43.20;17.60;;;;;;;-2.96;41.15;101822.10;2082137;84;31833;-68
2022/03/12 00:52:50;;;;;;;46.80;19.45;;;;;;;-2.98;41.25;101823.37;2103459;84;33179;-68
2022/03/12 00:55:52;;;;;;;47.98;19.92;;;;;;;-2.99;41.26;101815.45;2104111;84;29301;-68
2022/03/12 00:58:54;;;;;;;46.70;19.35;;;;;;;-3.00;41.30;101817.20;2104536;84;27837;-68
2022/03/12 01:01:56;;;;;;;42.70;19.77;;;;;;;-3.01;41.36;101821.06;2104266;84;28753;-68
2022/03/12 01:04:58;;;;;;;42.85;19.05;;;;;;;-3.02;41.43;101816.66;2104317;84;31165;-67
2022/03/12 01:07:59;;;;;;;42.85;19.95;;;;;;;-3.03;41.51;101813.56;2104321;84;32993;-67
2022/03/12 01:11:06;;;;;;;54.23;20.37;;;;;;;-3.05;41.54;101813.09;2104417;84;29479;-67
2022/03/12 01:14:09;;;;;;;50.23;18.60;;;;;;;-3.06;41.63;101813.06;2104133;84;27730;-68
2022/03/12 01:17:10;;;;;;;48.75;18.87;;;;;;;-3.08;41.56;101817.36;2104305;84;29532;-68
2022/03/12 01:20:12;;;;;;;45.08;18.60;;;;;;;-3.10;41.67;101818.64;2104291;84;31830;-68
2022/03/12 01:23:17;;;;;;;45.45;19.15;;;;;;;-3.11;41.66;101821.19;2104281;84;32933;-68
2022/03/12 01:26:22;;;;;;;41.45;18.90;;;;;;;-3.17;41.68;101817.97;2104360;84;29974;-68
2022/03/12 01:29:25;;;;;;;56.55;19.52;;;;;;;-3.18;41.78;101816.63;2104376;84;27931;-69
2022/03/12 01:32:26;;;;;;;43.95;19.02;;;;;;;-3.23;41.91;101813.86;2081382;85;29453;-68
2022/03/12 01:35:28;;;;;;;43.95;19.40;;;;;;;-3.27;41.99;101813.28;2103534;84;31062;-68
2022/03/12 01:38:34;;;;;;;46.20;18.82;;;;;;;-3.30;42.06;101813.18;2082051;85;32980;-68
2022/03/12 01:41:42;;;;;;;48.35;18.98;;;;;;;-3.33;42.30;101817.01;2101669;84;29393;-68
2022/03/12 01:44:44;;;;;;;44.05;19.35;;;;;;;-3.36;42.19;101812.57;2082204;84;27694;-68
2022/03/12 01:47:45;;;;;;;48.80;20.80;;;;;;;-3.41;42.28;101815.05;2103515;84;28627;-68
2022/03/12 01:50:47;;;;;;;46.92;18.85;;;;;;;-3.41;42.31;101809.81;2081071;85;30933;-68
2022/03/12 01:53:49;;;;;;;45.92;20.25;;;;;;;-3.44;42.35;101808.39;2104101;84;33049;-68
2022/03/12 01:56:53;;;;;;;42.95;17.70;;;;;;;-3.46;42.45;101810.47;2085375;84;30172;-67
2022/03/12 01:59:55;;;;;;;36.73;15.55;;;;;;;-3.48;42.45;101799.95;2098363;84;27749;-68
2022/03/12 02:02:58;;;;;;;50.98;20.32;;;;;;;-3.50;42.48;101804.25;2114996;84;28725;-68
2022/03/12 02:06:01;;;;;;;46.28;20.00;;;;;;;-3.53;42.50;101796.29;2139588;83;31067;-68
2022/03/12 02:09:03;;;;;;;48.98;19.20;;;;;;;-3.55;42.71;101797.56;2112065;84;32991;-68
2022/03/12 02:12:07;;;;;;;43.10;19.67;;;;;;;-3.57;42.94;101795.75;2098028;84;30138;-68
2022/03/12 02:15:09;;;;;;;43.73;19.07;;;;;;;-3.59;42.91;101787.81;2116669;84;27733;-68
2022/03/12 02:18:13;;;;;;;45.10;20.23;;;;;;;-3.61;43.07;101784.25;2139798;82;28681;-67
2022/03/12 02:21:15;;;;;;;56.70;20.08;;;;;;;-3.62;43.14;101781.59;2105735;84;31009;-68
2022/03/12 02:24:18;;;;;;;45.52;19.82;;;;;;;-3.62;43.14;101782.91;2103959;83;33578;-71
2022/03/12 02:27:20;;;;;;;50.50;19.80;;;;;;;-3.63;43.23;101772.83;2117136;84;29383;-67
2022/03/12 02:30:33;;;;;;;48.00;20.23;;;;;;;-3.64;43.31;101772.39;2140403;83;28216;-70
2022/03/12 02:33:31;;;;;;;46.53;19.80;;;;;;;-3.66;43.20;101764.47;2116709;84;28715;-68
2022/03/12 02:36:33;;;;;;;42.62;19.60;;;;;;;-3.67;43.25;101765.30;2136285;83;31798;-71
2022/03/12 02:39:37;;;;;;;45.50;20.50;;;;;;;-3.68;43.27;101771.38;2081759;85;33861;-69
2022/03/12 02:42:39;;;;;;;49.90;19.17;;;;;;;-3.70;43.29;101774.80;2132175;82;29407;-69
2022/03/12 02:45:41;;;;;;;43.80;18.92;;;;;;;-3.72;43.77;101771.23;2106199;84;27757;-71
2022/03/12 02:48:51;;;;;;;42.17;19.05;;;;;;;-3.74;43.79;101772.91;2096149;84;28801;-71
2022/03/12 02:51:53;;;;;;;51.80;20.27;;;;;;;-3.76;43.57;101773.28;2126901;83;31817;-68
2022/03/12 02:54:57;;;;;;;49.42;19.23;;;;;;;-3.76;43.56;101775.89;2116954;83;33170;-68
2022/03/12 02:57:59;;;;;;;46.50;19.20;;;;;;;-3.78;43.60;101773.23;2140346;83;29342;-66
2022/03/12 03:01:03;;;;;;;42.85;20.05;;;;;;;-3.78;43.63;101785.02;2117304;84;27768;-69
2022/03/12 03:04:04;;;;;;;47.45;19.57;;;;;;;-3.79;43.63;101776.69;2139971;83;28667;-69
2022/03/12 03:07:08;;;;;;;47.78;18.35;;;;;;;-3.82;43.68;101778.80;2115073;83;31854;-69
2022/03/12 03:10:10;;;;;;;48.37;18.80;;;;;;;-3.83;43.80;101782.25;2116090;83;33804;-69
2022/03/12 03:13:21;;;;;;;47.35;20.32;;;;;;;-3.85;44.03;101774.77;2080828;85;30162;-67
2022/03/12 03:16:24;;;;;;;43.08;18.07;;;;;;;-3.85;43.97;101783.02;2105615;83;27649;-68
2022/03/12 03:19:27;;;;;;;47.90;19.05;;;;;;;-3.86;43.95;101779.53;2117113;84;28647;-69
2022/03/12 03:22:28;;;;;;;49.67;19.65;;;;;;;-3.87;44.34;101775.13;2139355;83;31976;-69
2022/03/12 03:25:30;;;;;;;52.08;19.87;;;;;;;-3.88;44.20;101773.75;2117249;84;33001;-69
2022/03/12 03:28:32;;;;;;;45.20;19.80;;;;;;;-3.88;44.12;101769.42;2140207;83;30123;-68
2022/03/12 03:31:35;;;;;;;50.75;21.25;;;;;;;-3.87;44.19;101769.89;2117267;83;27705;-68
2022/03/12 03:34:37;;;;;;;42.98;19.25;;;;;;;-3.88;44.31;101758.05;2110964;83;28703;-67
2022/03/12 03:37:38;;;;;;;43.10;19.57;;;;;;;-3.89;44.41;101762.41;2080814;85;31012;-67
2022/03/12 03:40:42;;;;;;;45.35;17.45;;;;;;;-3.90;44.53;101750.59;2081666;85;33023;-67
2022/03/12 03:43:47;;;;;;;49.53;20.15;;;;;;;-3.90;44.44;101754.52;2089152;85;29497;-68
2022/03/12 03:46:49;;;;;;;38.55;17.35;;;;;;;-3.92;44.59;101758.80;2103696;84;27691;-68
2022/03/12 03:49:51;;;;;;;40.55;17.20;;;;;;;-3.94;44.83;101761.34;2124870;83;28627;-68
2022/03/12 03:52:59;;;;;;;47.17;18.73;;;;;;;-3.97;44.65;101756.91;2141877;83;32011;-67
2022/03/12 03:56:01;;;;;;;45.48;17.80;;;;;;;-4.00;44.62;101756.80;2124866;83;33781;-68
2022/03/12 03:59:06;;;;;;;40.60;16.50;;;;;;;-3.99;44.77;101761.20;2142458;83;30195;-68
2022/03/12 04:02:07;;;;;;;50.15;18.75;;;;;;;-4.02;44.86;101754.55;2104354;83;27728;-69
2022/03/12 04:05:09;;;;;;;46.02;18.70;;;;;;;-4.03;44.90;101759.74;2106422;84;28841;-69
2022/03/12 04:08:11;;;;;;;48.63;20.92;;;;;;;-4.04;45.21;101768.00;2090447;85;31794;-68
2022/03/12 04:11:20;;;;;;;43.08;17.50;;;;;;;-4.07;45.13;101765.30;2106605;84;33776;-68
2022/03/12 04:14:22;;;;;;;40.17;16.80;;;;;;;-4.08;45.22;101760.91;2090344;85;29275;-67
2022/03/12 04:17:23;;;;;;;50.28;19.60;;;;;;;-4.10;45.53;101756.44;2106930;84;27673;-68
2022/03/12 04:20:25;;;;;;;45.23;17.95;;;;;;;-4.12;45.40;101767.73;2090763;85;28636;-68
2022/03/12 04:23:28;;;;;;;45.45;19.73;;;;;;;-4.14;45.43;101767.22;2106664;84;31025;-68
2022/03/12 04:26:33;;;;;;;45.63;18.23;;;;;;;-4.17;45.50;101765.40;2090557;85;32363;-67
2022/03/12 04:29:33;;;;;;;40.73;18.35;;;;;;;-4.18;45.41;101764.93;2106434;84;29334;-68
2022/03/12 04:32:35;;;;;;;50.25;17.98;;;;;;;-4.19;45.48;101764.86;2090598;85;27713;-68
2022/03/12 04:35:38;;;;;;;42.83;18.92;;;;;;;-4.21;45.54;101772.66;2106180;84;28690;-68
2022/03/12 04:38:40;;;;;;;44.45;19.15;;;;;;;-4.23;45.45;101774.33;2090519;85;31719;-68
2022/03/12 04:41:41;;;;;;;43.17;18.45;;;;;;;-4.24;45.55;101772.55;2106176;84;32974;-68
2022/03/12 04:44:43;;;;;;;46.73;18.25;;;;;;;-4.25;45.63;101768.59;2081943;85;29348;-68
2022/03/12 04:47:48;;;;;;;43.05;17.55;;;;;;;-4.26;45.61;101768.98;2104078;84;27706;-68
2022/03/12 04:50:52;;;;;;;44.25;17.67;;;;;;;-4.26;45.72;101761.14;2081852;85;28701;-68
2022/03/12 04:53:58;;;;;;;47.53;17.40;;;;;;;-4.27;45.76;101761.58;2103577;84;31144;-68
2022/03/12 04:57:00;;;;;;;41.95;16.80;;;;;;;-4.26;45.89;101754.59;2081848;85;33849;-69
2022/03/12 05:00:05;;;;;;;39.23;18.37;;;;;;;-4.25;46.05;101764.23;2104120;84;30264;-68
2022/03/12 05:03:10;;;;;;;43.15;17.80;;;;;;;-4.26;45.98;101758.52;2082120;85;27601;-68
2022/03/12 05:06:13;;;;;;;47.78;18.98;;;;;;;-4.27;46.03;101754.12;2103795;84;29665;-66
2022/03/12 05:09:15;;;;;;;41.33;17.92;;;;;;;-4.26;45.94;101759.83;2082101;85;31890;-65
2022/03/12 05:12:17;;;;;;;42.88;18.23;;;;;;;-4.27;46.18;101759.36;2104133;84;33810;-67
2022/03/12 05:15:19;;;;;;;45.05;18.05;;;;;;;-4.27;46.00;101752.81;2082049;85;29337;-67
2022/03/12 05:18:23;;;;;;;41.68;18.80;;;;;;;-4.28;46.18;101757.58;2128951;82;27731;-67
2022/03/12 05:21:25;;;;;;;41.83;18.27;;;;;;;-4.28;46.11;101752.34;2116704;84;28659;-67
2022/03/12 05:24:27;;;;;;;53.17;18.92;;;;;;;-4.27;46.10;101748.89;2137289;83;31274;-67
2022/03/12 05:27:29;;;;;;;44.55;19.40;;;;;;;-4.26;46.06;101751.98;2082093;85;32959;-67
2022/03/12 05:30:30;;;;;;;50.35;18.52;;;;;;;-4.25;46.08;101744.61;2104232;84;29948;-67
2022/03/12 05:33:32;;;;;;;40.63;15.93;;;;;;;-4.24;46.23;101743.77;2081979;85;27705;-67
2022/03/12 05:36:36;;;;;;;47.33;18.52;;;;;;;-4.23;46.22;101745.55;2082115;85;28759;-67
2022/03/12 05:39:38;;;;;;;50.58;19.32;;;;;;;-4.22;46.10;101744.72;2082161;85;31051;-67
2022/03/12 05:42:39;;;;;;;47.08;19.62;;;;;;;-4.16;46.19;101753.19;2095724;82;33592;-68
2022/03/12 05:45:46;;;;;;;45.75;20.05;;;;;;;-4.13;46.25;101754.61;2106044;84;29415;-68
2022/03/12 05:48:48;;;;;;;43.48;16.45;;;;;;;-4.09;46.19;101750.36;2110588;84;27709;-67
2022/03/12 05:51:50;;;;;;;40.43;18.62;;;;;;;-4.04;46.20;101755.34;2120483;83;28085;-68
2022/03/12 05:54:52;;;;;;;40.83;18.62;;;;;;;-3.98;46.18;101759.48;2120428;84;31065;-68
2022/03/12 05:57:53;;;;;;;45.70;19.92;;;;;;;-3.93;46.13;101753.97;2129199;83;33095;-67
2022/03/12 06:00:55;;;;;;;48.00;20.27;;;;;;;-3.84;46.11;101750.77;2137869;83;29552;-67
2022/03/12 06:04:00;;;;;;;51.23;20.45;;;;;;;-3.76;46.16;101750.62;2090970;85;27824;-67
2022/03/12 06:07:01;;;;;;;48.30;21.82;;;;;;;-3.68;46.09;101749.55;2109282;84;28653;-67
2022/03/12 06:10:03;;;;;;;42.70;18.77;;;;;;;-3.58;46.03;101750.75;2100532;83;31005;-67
2022/03/12 06:13:08;;;;;;;49.95;20.55;;;;;;;-3.48;46.03;101748.00;2106863;84;32987;-67
2022/03/12 06:16:10;;;;;;;45.25;21.15;;;;;;;-3.36;45.86;101745.32;2126452;83;29414;-68
2022/03/12 06:19:12;;;;;;;46.98;19.98;;;;;;;-3.24;45.83;101736.08;2110721;82;27697;-67
2022/03/12 06:22:13;;;;;;;53.05;20.88;;;;;;;-3.10;45.79;101743.02;2101382;84;28633;-67
2022/03/12 06:25:17;;;;;;;48.15;21.85;;;;;;;-2.91;45.76;101747.98;2106767;84;30995;-68
2022/03/12 06:28:19;;;;;;;48.33;18.65;;;;;;;-2.63;45.67;101747.88;2090098;85;33773;-68
2022/03/12 06:31:22;;;;;;;42.20;18.95;;;;;;;-2.22;45.57;101740.67;2090769;85;30142;-67
2022/03/12 06:34:24;;;;;;;41.33;19.95;;;;;;;-1.77;45.15;101740.50;2090916;85;27729;-67
2022/03/12 06:37:26;;;;;;;45.23;19.55;;;;;;;-1.31;44.81;101737.63;2090935;85;28783;-71
2022/03/12 06:40:28;;;;;;;42.27;20.82;;;;;;;-0.87;44.12;101738.55;2101777;84;31191;-68
2022/03/12 06:43:31;;;;;;;61.18;29.50;;;;;;;-0.44;44.21;101740.75;2115499;83;32983;-67
2022/03/12 06:46:35;;;;;;;47.48;22.32;;;;;;;-0.02;43.65;101746.77;2122342;83;29547;-67
2022/03/12 06:49:38;;;;;;;44.27;22.42;;;;;;;0.34;43.10;101742.95;2139201;83;28249;-68
2022/03/12 06:52:43;;;;;;;45.05;21.75;;;;;;;0.70;42.39;101743.52;2139113;83;28858;-67
2022/03/12 06:55:44;;;;;;;47.65;21.33;;;;;;;1.04;42.56;101729.02;2139074;83;32102;-66
2022/03/12 06:58:46;;;;;;;39.67;18.30;;;;;;;1.47;42.44;101725.14;2108925;83;32963;-69
2022/03/12 07:01:48;;;;;;;39.38;20.82;;;;;;;1.82;40.73;101733.42;2121792;82;29346;-68
2022/03/12 07:04:49;;;;;;;50.75;23.83;;;;;;;2.06;41.10;101725.70;2139235;83;27655;-66
2022/03/12 07:07:51;;;;;;;48.40;22.42;;;;;;;2.41;40.85;101731.27;2139184;83;28671;-68
2022/03/12 07:10:54;;;;;;;46.85;21.70;;;;;;;2.73;40.27;101725.30;2138940;83;31088;-69
2022/03/12 07:13:55;;;;;;;51.33;24.80;;;;;;;3.09;39.86;101722.86;2118901;83;32982;-67
2022/03/12 07:16:57;;;;;;;46.33;22.17;;;;;;;3.41;40.02;101718.11;2102747;84;30133;-67
2022/03/12 07:19:59;;;;;;;47.45;24.30;;;;;;;3.72;39.44;101715.53;2102919;84;28280;-70
2022/03/12 07:23:01;;;;;;;44.50;22.70;;;;;;;3.95;38.53;101719.53;2102935;84;28570;-69
2022/03/12 07:26:03;;;;;;;44.95;23.57;;;;;;;4.13;38.59;101716.91;2103365;84;31860;-68
2022/03/12 07:29:05;;;;;;;47.65;23.02;;;;;;;4.38;38.01;101717.78;2103221;84;32938;-70
2022/03/12 07:32:08;;;;;;;44.67;22.85;;;;;;;4.63;38.17;101715.08;2103169;84;29334;-69
2022/03/12 07:35:12;;;;;;;46.28;22.55;;;;;;;5.01;38.39;101710.11;2103167;84;27672;-67
2022/03/12 07:38:13;;;;;;;42.83;22.07;;;;;;;5.35;37.99;101708.63;2103486;84;28831;-69
2022/03/12 07:41:15;;;;;;;51.90;25.55;;;;;;;5.70;37.74;101703.98;2109996;84;31024;-67
2022/03/12 07:44:17;;;;;;;46.58;24.00;;;;;;;6.02;37.16;101699.81;2129132;82;33168;-70
2022/03/12 07:47:19;;;;;;;51.00;27.48;;;;;;;6.04;35.03;101695.80;2113504;84;30007;-69
2022/03/12 07:50:21;;;;;;;44.48;24.10;;;;;;;6.07;35.76;101691.78;2112506;84;27698;-70
2022/03/12 07:53:23;;;;;;;45.48;22.70;;;;;;;6.20;36.11;101689.45;2125648;83;28735;-68
2022/03/12 07:56:25;;;;;;;47.73;26.20;;;;;;;6.56;36.04;101692.22;2145486;82;31228;-72
2022/03/12 07:59:27;;;;;;;46.68;23.22;;;;;;;6.84;35.52;101693.67;2148514;82;32950;-69
2022/03/12 08:02:29;;;;;;;48.63;24.07;;;;;;;7.05;35.94;101691.66;2148057;82;30252;-68
2022/03/12 08:05:31;;;;;;;48.95;26.82;;;;;;;7.33;35.31;101694.42;2148384;82;27830;-69
2022/03/12 08:08:34;;;;;;;48.40;24.72;;;;;;;7.32;34.08;101689.52;2149363;82;28658;-69
2022/03/12 08:11:36;;;;;;;42.15;21.90;;;;;;;7.34;34.21;101688.19;2149378;82;31854;-71
2022/03/12 08:14:38;;;;;;;46.90;23.07;;;;;;;7.54;34.05;101679.89;2149437;82;33973;-68
2022/03/12 08:17:40;;;;;;;48.52;23.22;;;;;;;7.66;34.25;101684.17;2149561;82;29365;-68
2022/03/12 08:20:44;;;;;;;45.28;23.98;;;;;;;7.94;34.27;101679.73;2149607;82;28285;-69
2022/03/12 08:23:49;;;;;;;44.35;24.02;;;;;;;8.18;33.98;101681.10;2149232;82;28700;-69
2022/03/12 08:26:51;;;;;;;42.35;23.25;;;;;;;8.21;33.45;101676.58;2117761;82;31028;-70
2022/03/12 08:29:53;;;;;;;43.90;23.60;;;;;;;8.26;32.89;101676.53;2113015;84;32938;-68
2022/03/12 08:32:54;;;;;;;45.23;23.10;;;;;;;8.25;33.19;101673.42;2113104;84;29315;-67
2022/03/12 08:36:02;;;;;;;47.83;22.75;;;;;;;8.19;32.38;101673.52;2090942;85;27641;-68
2022/03/12 08:39:04;;;;;;;44.10;22.77;;;;;;;7.86;31.83;101680.72;2090903;85;28668;-69
2022/03/12 08:42:07;;;;;;;42.43;22.02;;;;;;;7.63;32.96;101679.74;2090752;85;31031;-69
2022/03/12 08:45:11;;;;;;;47.08;24.72;;;;;;;7.45;32.26;101676.44;2112883;84;32962;-69
2022/03/12 08:48:14;;;;;;;41.23;21.47;;;;;;;7.23;33.25;101677.20;2078248;85;30196;-68
2022/03/12 08:51:17;;;;;;;46.60;22.93;;;;;;;7.11;33.06;101676.94;2126366;83;27692;-69
2022/03/12 08:54:22;;;;;;;39.78;20.62;;;;;;;6.92;33.09;101678.06;2148817;82;28788;-69
2022/03/12 08:57:27;;;;;;;44.70;22.15;;;;;;;6.85;33.05;101678.59;2110811;84;31058;-67
2022/03/12 09:00:31;;;;;;;41.15;21.80;;;;;;;6.82;33.14;101679.48;2112636;84;32954;-70
2022/03/12 09:03:33;;;;;;;41.35;20.97;;;;;;;6.86;33.37;101683.02;2113720;84;29347;-71
2022/03/12 09:06:35;;;;;;;39.85;20.85;;;;;;;6.94;33.39;101677.13;2141457;82;27767;-69
2022/03/12 09:09:39;;;;;;;28.70;15.28;;;;;;;6.95;32.97;101680.70;2132050;82;27706;-69
2022/03/12 09:12:44;;;;;;;41.75;21.73;;;;;;;6.91;32.69;101680.29;2113148;84;31017;-72
2022/03/12 09:15:46;;;;;;;45.52;21.73;;;;;;;6.91;32.73;101678.49;2112974;84;37264;-67
2022/03/12 09:18:48;;;;;;;49.42;23.38;;;;;;;6.80;32.73;101672.42;2113057;84;29699;-72
2022/03/12 09:21:50;;;;;;;42.83;21.65;;;;;;;6.72;32.30;101671.18;2113404;84;27688;-69
2022/03/12 09:24:51;;;;;;;39.45;20.48;;;;;;;6.60;32.10;101665.53;2113158;84;28651;-68
2022/03/12 09:27:53;;;;;;;39.53;20.50;;;;;;;6.58;32.65;101664.66;2113426;84;31060;-68
2022/03/12 09:30:57;;;;;;;44.20;20.68;;;;;;;6.62;32.35;101659.75;2145511;82;32935;-70
2022/03/12 09:34:06;;;;;;;43.42;22.70;;;;;;;6.57;32.50;101662.03;2148799;82;29425;-67
2022/03/12 09:37:06;;;;;;;39.40;22.13;;;;;;;6.58;32.61;101659.34;2148481;82;27739;-67
2022/03/12 09:40:10;;;;;;;37.88;18.70;;;;;;;6.64;32.69;101661.95;2149637;82;28702;-69
2022/03/12 09:43:12;;;;;;;40.05;20.40;;;;;;;6.64;32.42;101661.95;2124658;82;31025;-69
2022/03/12 09:46:14;;;;;;;36.17;20.30;;;;;;;6.66;31.74;101657.92;2142698;81;32970;-68
2022/03/12 09:49:16;;;;;;;40.10;19.62;;;;;;;6.68;32.26;101657.46;2119594;83;29375;-68
2022/03/12 09:52:17;;;;;;;39.95;20.08;;;;;;;6.76;32.72;101652.94;2117011;83;27706;-68
2022/03/12 09:55:20;;;;;;;38.67;19.27;;;;;;;6.77;31.95;101648.48;2096108;84;28734;-69
2022/03/12 09:58:21;;;;;;;37.28;18.67;;;;;;;6.80;32.08;101649.31;2106478;84;31835;-68
2022/03/12 10:01:23;;;;;;;36.83;19.32;;;;;;;6.88;32.24;101651.02;2097417;84;33036;-69
2022/03/12 10:04:25;;;;;;;40.03;18.70;;;;;;;6.96;31.93;101643.36;2110484;83;29383;-67
2022/03/12 10:07:26;;;;;;;35.43;17.65;;;;;;;7.00;31.44;101644.20;2142578;83;28092;-67
2022/03/12 10:10:29;;;;;;;31.30;16.75;;;;;;;6.92;31.31;101637.63;2125743;83;28657;-68
2022/03/12 10:13:31;;;;;;;34.35;18.48;;;;;;;6.90;31.20;101632.77;2142626;83;31026;-65
2022/03/12 10:16:33;;;;;;;41.13;19.75;;;;;;;6.88;31.37;101640.36;2125897;83;32994;-67
2022/03/12 10:19:38;;;;;;;35.73;17.70;;;;;;;6.86;30.68;101630.17;2142741;83;29408;-68
2022/03/12 10:22:41;;;;;;;33.80;18.17;;;;;;;6.75;30.98;101631.20;2112523;83;27746;-68
2022/03/12 10:25:43;;;;;;;37.30;18.73;;;;;;;6.63;30.84;101628.66;2119049;83;28665;-66
2022/03/12 10:28:45;;;;;;;35.80;18.17;;;;;;;6.62;31.54;101626.93;2121267;83;31011;-68
2022/03/12 10:31:47;;;;;;;34.00;16.85;;;;;;;6.65;31.08;101628.20;2142576;82;32920;-67
2022/03/12 10:34:56;;;;;;;31.60;15.18;;;;;;;6.69;31.16;101628.59;2083492;83;29333;-68
2022/03/12 10:37:54;;;;;;;30.17;16.12;;;;;;;6.75;30.07;101628.97;2074443;85;28205;-72
2022/03/12 10:40:59;;;;;;;35.08;18.77;;;;;;;6.70;30.32;101629.03;2074450;85;28667;-70
2022/03/12 10:44:01;;;;;;;31.17;16.73;;;;;;;6.61;30.03;101628.69;2140380;83;32710;-69
2022/03/12 10:47:24;;;;;;;36.00;17.73;;;;;;;6.56;30.45;101633.18;2141972;83;34222;-71
2022/03/12 10:50:30;;;;;;;28.87;14.63;;;;;;;6.60;31.06;101626.92;2109632;84;30710;-67
2022/03/12 10:53:34;;;;;;;29.98;15.13;;;;;;;6.60;29.83;101622.06;2091578;83;27698;-68
2022/03/12 10:56:55;;;;;;;28.07;14.00;;;;;;;6.53;29.47;101623.45;2062658;84;29875;-62
2022/03/12 10:59:56;;;;;;;25.45;12.88;;;;;;;6.51;29.59;101617.73;2094686;83;30955;-65
2022/03/12 11:03:01;;;;;;;28.80;14.78;;;;;;;6.52;29.52;101620.83;2139149;82;33337;-72
2022/03/12 11:06:06;;;;;;;28.95;14.93;;;;;;;6.57;29.72;101613.64;2137816;83;29381;-66
2022/03/12 11:09:08;;;;;;;21.30;10.20;;;;;;;6.59;29.63;101610.52;2131240;83;33194;-70
2022/03/12 11:12:33;;;;;;;27.30;14.65;;;;;;;6.65;29.62;101600.23;2119561;83;29051;-70
2022/03/12 11:15:35;;;;;;;26.15;13.00;;;;;;;6.72;29.10;101591.72;2136866;83;31023;-65
2022/03/12 11:18:37;;;;;;;24.35;13.70;;;;;;;6.72;29.10;101591.72;2136884;83;33137;-64
2022/03/12 11:21:53;;;;;;;25.97;13.62;;;;;;;6.70;29.28;101594.41;2131900;82;29482;-63
2022/03/12 11:24:55;;;;;;;28.20;13.53;;;;;;;6.70;29.08;101585.09;2122006;83;27709;-64
2022/03/12 11:28:01;;;;;;;30.45;14.68;;;;;;;6.74;29.38;101586.83;2106006;84;29022;-63
2022/03/12 11:31:07;;;;;;;25.15;14.05;;;;;;;6.80;29.10;101577.87;2112669;83;31016;-64
2022/03/12 11:34:24;;;;;;;29.80;14.20;;;;;;;6.81;29.17;101571.17;2121968;82;33747;-64
2022/03/12 11:37:26;;;;;;;27.65;13.93;;;;;;;6.86;29.10;101583.56;2113042;83;29333;-67
2022/03/12 11:40:30;;;;;;;32.40;15.08;;;;;;;6.89;29.00;101567.08;2101931;84;27611;-64
2022/03/12 11:43:40;;;;;;;26.95;15.05;;;;;;;6.96;29.42;101570.53;2080667;84;28888;-72
2022/03/12 11:46:45;;;;;;;22.67;13.43;;;;;;;7.03;29.11;101566.03;2120210;83;31195;-70
2022/03/12 11:49:48;;;;;;;22.13;13.93;;;;;;;7.04;29.30;101561.09;2139777;82;32992;-66
2022/03/12 11:52:52;;;;;;;24.02;14.15;;;;;;;7.12;29.30;101556.55;2132528;83;30131;-70
2022/03/12 11:55:54;;;;;;;19.12;11.90;;;;;;;7.18;29.09;101555.14;2139687;83;27775;-70
2022/03/12 11:58:57;;;;;;;24.52;12.65;;;;;;;7.24;28.62;101551.02;2137148;83;28748;-67
2022/03/12 12:02:05;;;;;;;20.45;11.00;;;;;;;7.33;29.04;101543.34;2125204;83;31066;-68
2022/03/12 12:05:12;;;;;;;22.67;12.07;;;;;;;7.41;27.78;101545.87;2104889;84;32989;-67
2022/03/12 12:08:14;;;;;;;23.83;11.60;;;;;;;7.47;27.85;101545.79;2116906;84;30286;-67
2022/03/12 12:11:17;;;;;;;19.75;11.43;;;;;;;7.49;27.69;101531.98;2116845;83;27753;-69
2022/03/12 12:14:20;;;;;;;20.43;10.95;;;;;;;7.50;27.32;101536.84;2117038;83;28685;-70
2022/03/12 12:17:21;;;;;;;19.70;10.65;;;;;;;7.53;27.67;101532.80;2124493;83;31081;-69
2022/03/12 12:20:24;;;;;;;18.73;11.18;;;;;;;7.62;28.15;101538.43;2144478;82;32993;-68
2022/03/12 12:23:26;;;;;;;21.17;11.70;;;;;;;7.71;28.23;101523.59;2090683;85;29334;-67
2022/03/12 12:26:27;;;;;;;19.92;10.70;;;;;;;7.77;27.94;101519.48;2115054;84;27631;-70
2022/03/12 12:29:48;;;;;;;18.30;10.30;;;;;;;7.84;27.51;101525.59;2119335;83;29469;-68
2022/03/12 12:32:50;;;;;;;16.75;10.78;;;;;;;7.87;27.70;101517.06;2116602;83;32029;-66
2022/03/12 12:36:10;;;;;;;16.70;8.93;;;;;;;7.97;28.37;101517.77;2100045;84;32966;-66
2022/03/12 12:39:12;;;;;;;17.75;10.88;;;;;;;8.04;27.36;101510.09;2135930;83;29321;-67
2022/03/12 12:42:14;;;;;;;20.75;9.43;;;;;;;8.08;27.68;101499.35;2136260;83;27669;-68
2022/03/12 12:45:20;;;;;;;15.48;9.03;;;;;;;8.13;27.11;101504.13;2133292;83;28779;-65
2022/03/12 12:48:40;;;;;;;11.05;6.92;;;;;;;8.17;27.46;101493.38;2126708;83;31068;-65
2022/03/12 12:51:51;;;;;;;13.15;7.30;;;;;;;8.23;26.43;101492.38;2126657;83;33378;-67
2022/03/12 12:55:02;;;;;;;14.53;7.92;;;;;;;8.30;26.40;101482.44;2127013;83;29343;-66
2022/03/12 12:58:04;;;;;;;16.27;7.85;;;;;;;8.36;26.54;101471.17;2126994;83;27664;-66
2022/03/12 13:01:08;;;;;;;13.13;6.87;;;;;;;8.43;26.98;101467.91;2126909;83;28749;-66
2022/03/12 13:04:12;;;;;;;14.13;6.47;;;;;;;8.51;26.43;101471.34;2099321;83;31027;-67
2022/03/12 13:07:24;;;;;;;6.40;4.33;;;;;;;8.57;26.04;101468.09;2114681;83;32947;-66
2022/03/12 13:10:27;;;;;;;7.12;4.25;;;;;;;8.63;25.24;101460.81;2116851;83;29396;-67
2022/03/12 13:13:31;;;;;;;7.28;3.60;;;;;;;8.69;25.81;101462.45;2112626;84;27691;-70
2022/03/12 13:16:56;;;;;;;7.00;3.72;;;;;;;8.77;24.51;101452.95;2114777;83;28636;-68
2022/03/12 13:19:59;;;;;;;3.98;2.70;;;;;;;8.80;24.14;101453.76;2127365;83;31392;-68
2022/03/12 13:23:02;;;;;;;7.97;4.03;;;;;;;8.81;24.14;101447.50;2122526;83;33829;-67
2022/03/12 13:26:05;;;;;;;8.75;3.85;;;;;;;8.83;23.57;101454.60;2114319;82;29339;-67
2022/03/12 13:29:09;;;;;;;6.00;3.58;;;;;;;8.81;23.85;101451.95;2072006;83;27715;-64
2022/03/12 13:32:22;;;;;;;7.17;3.65;;;;;;;8.79;23.76;101439.97;2145628;82;28676;-64
2022/03/12 13:35:28;;;;;;;6.00;4.05;;;;;;;8.82;23.27;101445.69;2151881;82;31373;-66
2022/03/12 13:38:31;;;;;;;6.90;3.75;;;;;;;8.84;23.74;101443.00;2133442;82;32958;-64
2022/03/12 13:41:35;;;;;;;6.00;3.25;;;;;;;8.81;23.34;101434.58;2126582;83;29391;-64
2022/03/12 13:44:37;;;;;;;6.40;3.72;;;;;;;8.83;23.52;101436.77;2125430;83;27700;-64
2022/03/12 13:47:40;;;;;;;9.00;4.65;;;;;;;8.86;23.60;101430.45;2112851;83;30017;-65
2022/03/12 13:50:42;;;;;;;6.62;3.83;;;;;;;8.88;24.12;101436.20;2124398;83;31416;-67
2022/03/12 13:53:50;;;;;;;6.58;3.42;;;;;;;8.88;23.05;101434.86;2120042;83;33816;-66
2022/03/12 13:56:52;;;;;;;6.90;3.20;;;;;;;8.88;23.11;101433.53;2123340;82;29562;-66
2022/03/12 14:00:07;;;;;;;7.03;3.17;;;;;;;8.87;22.86;101430.88;2113442;83;27909;-66